Airport Name : Launceston

Other Name : Launceston

ICAO : YMLT

IATA : LST

FAA :

Latitude : -41.545278

Longitude : 147.214167

Country : Australia

Local Date and Time : 07 Mar 2021 05:13

 

TAF (Terminal Aerodrome Forecast)

TAF YMLT 061700Z 0618/0718 32007KT 9999 SCT025 FM061900 33008KT 9999 BKN025 FM070100 33012KT 9999 SCT040 FM070800 34010KT CAVOK FM071500 30005KT 9999 FEW020

 

METAR (METeorological Aerodrome Report)

YMLT 061800Z AUTO 36005KT 9999 // OVC026 10/07 Q1013 RF00.0/000.0

YMLT 061730Z AUTO 36003KT 9999 // OVC024 10/07 Q1013 RF00.0/000.0

YMLT 061700Z AUTO 36004KT 9999 // OVC024 09/06 Q1013 RF00.0/000.0

YMLT 061630Z AUTO 31005KT 9999 // BKN024 09/05 Q1013 RF00.0/000.0

YMLT 061600Z AUTO 31005KT 9999 // SCT024 09/06 Q1014 RF00.0/000.0

YMLT 061530Z AUTO 33004KT 9999 // NCD 09/06 Q1014 RF00.0/000.0

YMLT 061500Z AUTO 31005KT 9999 // NCD 10/05 Q1014 RF00.0/000.0

YMLT 061430Z AUTO 30005KT 9999 // NCD 11/06 Q1014 RF00.0/000.0

To Charter a Jet Click here.